sensor_id;sensor_type;location;lat;lon;timestamp;P1;durP1;ratioP1;P2;durP2;ratioP2
57457;SDS011;43304;52.332;6.110;2023-04-15T00:01:53;9.20;;;7.57;;
57457;SDS011;43304;52.332;6.110;2023-04-15T00:04:21;8.88;;;7.40;;
57457;SDS011;43304;52.332;6.110;2023-04-15T00:06:50;9.03;;;7.10;;
57457;SDS011;43304;52.332;6.110;2023-04-15T00:09:19;9.13;;;7.50;;
57457;SDS011;43304;52.332;6.110;2023-04-15T00:11:46;10.80;;;7.90;;
57457;SDS011;43304;52.332;6.110;2023-04-15T00:14:14;8.90;;;6.97;;
57457;SDS011;43304;52.332;6.110;2023-04-15T00:16:42;9.85;;;7.75;;
57457;SDS011;43304;52.332;6.110;2023-04-15T00:19:10;9.57;;;7.80;;
57457;SDS011;43304;52.332;6.110;2023-04-15T00:21:37;8.52;;;7.30;;
57457;SDS011;43304;52.332;6.110;2023-04-15T00:24:05;9.57;;;7.20;;
57457;SDS011;43304;52.332;6.110;2023-04-15T00:26:34;8.65;;;7.47;;
57457;SDS011;43304;52.332;6.110;2023-04-15T00:29:02;9.00;;;7.22;;
57457;SDS011;43304;52.332;6.110;2023-04-15T00:31:30;8.73;;;6.82;;
57457;SDS011;43304;52.332;6.110;2023-04-15T00:33:57;10.32;;;7.38;;
57457;SDS011;43304;52.332;6.110;2023-04-15T00:36:25;7.90;;;7.10;;
57457;SDS011;43304;52.332;6.110;2023-04-15T00:38:52;9.67;;;7.23;;
57457;SDS011;43304;52.332;6.110;2023-04-15T00:41:20;8.15;;;7.00;;
57457;SDS011;43304;52.332;6.110;2023-04-15T00:43:48;10.50;;;7.10;;
57457;SDS011;43304;52.332;6.110;2023-04-15T00:46:16;9.15;;;7.20;;
57457;SDS011;43304;52.332;6.110;2023-04-15T00:48:53;7.95;;;6.82;;
57457;SDS011;43304;52.332;6.110;2023-04-15T00:51:20;8.80;;;7.10;;
57457;SDS011;43304;52.332;6.110;2023-04-15T00:53:48;9.73;;;7.55;;
57457;SDS011;43304;52.332;6.110;2023-04-15T00:56:16;8.68;;;7.00;;
57457;SDS011;43304;52.332;6.110;2023-04-15T00:58:43;9.32;;;7.00;;
57457;SDS011;43304;52.332;6.110;2023-04-15T01:01:10;8.77;;;7.40;;
57457;SDS011;43304;52.332;6.110;2023-04-15T01:03:37;9.07;;;7.45;;
57457;SDS011;43304;52.332;6.110;2023-04-15T01:06:05;9.38;;;7.78;;
57457;SDS011;43304;52.332;6.110;2023-04-15T01:08:33;9.23;;;7.80;;
57457;SDS011;43304;52.332;6.110;2023-04-15T01:11:02;9.55;;;7.47;;
57457;SDS011;43304;52.332;6.110;2023-04-15T01:13:30;8.50;;;7.60;;
57457;SDS011;43304;52.332;6.110;2023-04-15T01:15:59;10.57;;;8.02;;
57457;SDS011;43304;52.332;6.110;2023-04-15T01:18:29;9.10;;;7.78;;
57457;SDS011;43304;52.332;6.110;2023-04-15T01:20:57;9.03;;;8.00;;
57457;SDS011;43304;52.332;6.110;2023-04-15T01:23:26;9.88;;;7.85;;
57457;SDS011;43304;52.332;6.110;2023-04-15T01:25:54;9.53;;;8.07;;
57457;SDS011;43304;52.332;6.110;2023-04-15T01:28:22;9.05;;;7.80;;
57457;SDS011;43304;52.332;6.110;2023-04-15T01:30:49;8.68;;;7.80;;
57457;SDS011;43304;52.332;6.110;2023-04-15T01:33:16;8.73;;;7.93;;
57457;SDS011;43304;52.332;6.110;2023-04-15T01:35:44;9.98;;;8.35;;
57457;SDS011;43304;52.332;6.110;2023-04-15T01:38:12;10.48;;;8.52;;
57457;SDS011;43304;52.332;6.110;2023-04-15T01:40:39;9.60;;;8.27;;
57457;SDS011;43304;52.332;6.110;2023-04-15T01:43:06;9.70;;;8.50;;
57457;SDS011;43304;52.332;6.110;2023-04-15T01:45:33;10.77;;;8.75;;
57457;SDS011;43304;52.332;6.110;2023-04-15T01:48:00;10.52;;;8.70;;
57457;SDS011;43304;52.332;6.110;2023-04-15T01:50:29;9.25;;;8.32;;
57457;SDS011;43304;52.332;6.110;2023-04-15T01:52:58;10.68;;;8.50;;
57457;SDS011;43304;52.332;6.110;2023-04-15T01:55:25;10.25;;;8.75;;
57457;SDS011;43304;52.332;6.110;2023-04-15T01:57:52;10.35;;;9.18;;
57457;SDS011;43304;52.332;6.110;2023-04-15T02:00:20;10.35;;;9.15;;
57457;SDS011;43304;52.332;6.110;2023-04-15T02:02:48;10.18;;;9.18;;
57457;SDS011;43304;52.332;6.110;2023-04-15T02:05:18;10.15;;;8.70;;
57457;SDS011;43304;52.332;6.110;2023-04-15T02:07:45;9.57;;;8.63;;
57457;SDS011;43304;52.332;6.110;2023-04-15T02:10:13;10.07;;;8.98;;
57457;SDS011;43304;52.332;6.110;2023-04-15T02:12:42;10.37;;;9.17;;
57457;SDS011;43304;52.332;6.110;2023-04-15T02:15:09;9.60;;;8.65;;
57457;SDS011;43304;52.332;6.110;2023-04-15T02:17:36;10.75;;;9.40;;
57457;SDS011;43304;52.332;6.110;2023-04-15T02:20:04;10.73;;;9.25;;
57457;SDS011;43304;52.332;6.110;2023-04-15T02:22:34;11.13;;;8.82;;
57457;SDS011;43304;52.332;6.110;2023-04-15T02:25:01;10.70;;;9.52;;
57457;SDS011;43304;52.332;6.110;2023-04-15T02:27:29;9.98;;;8.98;;
57457;SDS011;43304;52.332;6.110;2023-04-15T02:29:56;10.13;;;9.10;;
57457;SDS011;43304;52.332;6.110;2023-04-15T02:32:26;14.00;;;9.30;;
57457;SDS011;43304;52.332;6.110;2023-04-15T02:34:55;10.27;;;9.27;;
57457;SDS011;43304;52.332;6.110;2023-04-15T02:37:22;10.60;;;9.48;;
57457;SDS011;43304;52.332;6.110;2023-04-15T02:39:50;10.63;;;9.52;;
57457;SDS011;43304;52.332;6.110;2023-04-15T02:42:18;10.60;;;9.50;;
57457;SDS011;43304;52.332;6.110;2023-04-15T02:44:48;10.23;;;9.20;;
57457;SDS011;43304;52.332;6.110;2023-04-15T02:47:15;10.50;;;9.40;;
57457;SDS011;43304;52.332;6.110;2023-04-15T02:49:42;10.25;;;9.25;;
57457;SDS011;43304;52.332;6.110;2023-04-15T02:52:09;11.05;;;9.90;;
57457;SDS011;43304;52.332;6.110;2023-04-15T02:54:37;10.18;;;9.07;;
57457;SDS011;43304;52.332;6.110;2023-04-15T02:57:04;10.55;;;9.55;;
57457;SDS011;43304;52.332;6.110;2023-04-15T02:59:32;10.57;;;9.40;;
57457;SDS011;43304;52.332;6.110;2023-04-15T03:01:59;10.80;;;9.70;;
57457;SDS011;43304;52.332;6.110;2023-04-15T03:04:26;11.02;;;9.88;;
57457;SDS011;43304;52.332;6.110;2023-04-15T03:06:55;11.10;;;9.98;;
57457;SDS011;43304;52.332;6.110;2023-04-15T03:09:23;11.32;;;10.07;;
57457;SDS011;43304;52.332;6.110;2023-04-15T03:11:50;11.40;;;10.30;;
57457;SDS011;43304;52.332;6.110;2023-04-15T03:14:21;11.65;;;10.45;;
57457;SDS011;43304;52.332;6.110;2023-04-15T03:16:48;11.73;;;10.50;;
57457;SDS011;43304;52.332;6.110;2023-04-15T03:19:17;11.95;;;10.50;;
57457;SDS011;43304;52.332;6.110;2023-04-15T03:21:44;11.40;;;10.05;;
57457;SDS011;43304;52.332;6.110;2023-04-15T03:24:11;11.60;;;10.50;;
57457;SDS011;43304;52.332;6.110;2023-04-15T03:26:39;11.63;;;10.40;;
57457;SDS011;43304;52.332;6.110;2023-04-15T03:29:07;11.87;;;10.70;;
57457;SDS011;43304;52.332;6.110;2023-04-15T03:31:38;11.90;;;10.75;;
57457;SDS011;43304;52.332;6.110;2023-04-15T03:34:07;12.05;;;10.85;;
57457;SDS011;43304;52.332;6.110;2023-04-15T03:36:35;11.93;;;10.75;;
57457;SDS011;43304;52.332;6.110;2023-04-15T03:39:03;12.18;;;10.98;;
57457;SDS011;43304;52.332;6.110;2023-04-15T03:41:30;12.15;;;10.93;;
57457;SDS011;43304;52.332;6.110;2023-04-15T03:44:01;12.23;;;11.02;;
57457;SDS011;43304;52.332;6.110;2023-04-15T03:46:28;12.23;;;11.02;;
57457;SDS011;43304;52.332;6.110;2023-04-15T03:48:55;12.15;;;10.93;;
57457;SDS011;43304;52.332;6.110;2023-04-15T03:51:22;11.90;;;10.70;;
57457;SDS011;43304;52.332;6.110;2023-04-15T03:53:49;12.90;;;11.07;;
57457;SDS011;43304;52.332;6.110;2023-04-15T03:56:16;12.37;;;11.17;;
57457;SDS011;43304;52.332;6.110;2023-04-15T03:58:43;12.63;;;11.35;;
57457;SDS011;43304;52.332;6.110;2023-04-15T04:01:10;13.15;;;11.85;;
57457;SDS011;43304;52.332;6.110;2023-04-15T04:03:37;13.15;;;11.80;;
57457;SDS011;43304;52.332;6.110;2023-04-15T04:06:05;13.30;;;11.93;;
57457;SDS011;43304;52.332;6.110;2023-04-15T04:08:32;13.00;;;11.70;;
57457;SDS011;43304;52.332;6.110;2023-04-15T04:10:59;13.15;;;11.85;;
57457;SDS011;43304;52.332;6.110;2023-04-15T04:13:29;13.40;;;12.18;;
57457;SDS011;43304;52.332;6.110;2023-04-15T04:15:56;13.70;;;12.30;;
57457;SDS011;43304;52.332;6.110;2023-04-15T04:18:23;13.40;;;12.10;;
57457;SDS011;43304;52.332;6.110;2023-04-15T04:20:50;13.93;;;12.52;;
57457;SDS011;43304;52.332;6.110;2023-04-15T04:23:18;14.07;;;12.83;;
57457;SDS011;43304;52.332;6.110;2023-04-15T04:25:47;14.20;;;12.90;;
57457;SDS011;43304;52.332;6.110;2023-04-15T04:28:14;14.63;;;13.13;;
57457;SDS011;43304;52.332;6.110;2023-04-15T04:30:41;13.85;;;12.50;;
57457;SDS011;43304;52.332;6.110;2023-04-15T04:33:08;14.27;;;13.00;;
57457;SDS011;43304;52.332;6.110;2023-04-15T04:35:35;15.10;;;13.60;;
57457;SDS011;43304;52.332;6.110;2023-04-15T04:38:03;15.13;;;13.73;;
57457;SDS011;43304;52.332;6.110;2023-04-15T04:40:30;15.15;;;13.75;;
57457;SDS011;43304;52.332;6.110;2023-04-15T04:42:57;14.80;;;13.30;;
57457;SDS011;43304;52.332;6.110;2023-04-15T04:45:25;15.00;;;13.50;;
57457;SDS011;43304;52.332;6.110;2023-04-15T04:47:52;16.35;;;14.57;;
57457;SDS011;43304;52.332;6.110;2023-04-15T04:50:19;15.60;;;14.10;;
57457;SDS011;43304;52.332;6.110;2023-04-15T04:52:46;16.05;;;14.55;;
57457;SDS011;43304;52.332;6.110;2023-04-15T04:55:13;16.33;;;14.73;;
57457;SDS011;43304;52.332;6.110;2023-04-15T04:57:40;16.10;;;14.60;;
57457;SDS011;43304;52.332;6.110;2023-04-15T05:00:09;17.35;;;15.75;;
57457;SDS011;43304;52.332;6.110;2023-04-15T05:02:36;16.90;;;15.30;;
57457;SDS011;43304;52.332;6.110;2023-04-15T05:05:04;16.67;;;15.07;;
57457;SDS011;43304;52.332;6.110;2023-04-15T05:07:33;17.45;;;15.75;;
57457;SDS011;43304;52.332;6.110;2023-04-15T05:10:00;18.48;;;16.55;;
57457;SDS011;43304;52.332;6.110;2023-04-15T05:12:27;18.08;;;16.38;;
57457;SDS011;43304;52.332;6.110;2023-04-15T05:14:55;18.23;;;16.43;;
57457;SDS011;43304;52.332;6.110;2023-04-15T05:17:22;18.45;;;16.73;;
57457;SDS011;43304;52.332;6.110;2023-04-15T05:19:49;18.10;;;16.33;;
57457;SDS011;43304;52.332;6.110;2023-04-15T05:22:19;18.13;;;16.50;;
57457;SDS011;43304;52.332;6.110;2023-04-15T05:24:47;18.23;;;16.63;;
57457;SDS011;43304;52.332;6.110;2023-04-15T05:27:14;18.30;;;16.60;;
57457;SDS011;43304;52.332;6.110;2023-04-15T05:29:51;19.02;;;17.13;;
57457;SDS011;43304;52.332;6.110;2023-04-15T05:32:24;18.73;;;17.02;;
57457;SDS011;43304;52.332;6.110;2023-04-15T05:34:51;18.58;;;16.90;;
57457;SDS011;43304;52.332;6.110;2023-04-15T05:37:19;17.80;;;16.20;;
57457;SDS011;43304;52.332;6.110;2023-04-15T05:39:48;17.40;;;15.77;;
57457;SDS011;43304;52.332;6.110;2023-04-15T05:42:15;17.00;;;15.40;;
57457;SDS011;43304;52.332;6.110;2023-04-15T05:44:43;16.90;;;15.48;;
57457;SDS011;43304;52.332;6.110;2023-04-15T05:47:10;16.95;;;15.30;;
57457;SDS011;43304;52.332;6.110;2023-04-15T05:49:38;16.40;;;14.90;;
57457;SDS011;43304;52.332;6.110;2023-04-15T05:52:05;17.93;;;16.27;;
57457;SDS011;43304;52.332;6.110;2023-04-15T05:54:32;17.02;;;15.43;;
57457;SDS011;43304;52.332;6.110;2023-04-15T05:56:59;17.33;;;15.73;;
57457;SDS011;43304;52.332;6.110;2023-04-15T05:59:26;16.85;;;15.25;;
57457;SDS011;43304;52.332;6.110;2023-04-15T06:01:54;16.42;;;14.95;;
57457;SDS011;43304;52.332;6.110;2023-04-15T06:04:22;16.50;;;15.00;;
57457;SDS011;43304;52.332;6.110;2023-04-15T06:06:49;17.85;;;16.10;;
57457;SDS011;43304;52.332;6.110;2023-04-15T06:09:16;16.83;;;15.38;;
57457;SDS011;43304;52.332;6.110;2023-04-15T06:11:44;17.03;;;15.53;;
57457;SDS011;43304;52.332;6.110;2023-04-15T06:14:11;17.02;;;15.63;;
57457;SDS011;43304;52.332;6.110;2023-04-15T06:16:38;17.30;;;15.80;;
57457;SDS011;43304;52.332;6.110;2023-04-15T06:19:05;17.48;;;15.95;;
57457;SDS011;43304;52.332;6.110;2023-04-15T06:21:32;19.05;;;17.25;;
57457;SDS011;43304;52.332;6.110;2023-04-15T06:23:59;19.00;;;17.20;;
57457;SDS011;43304;52.332;6.110;2023-04-15T06:26:29;19.02;;;17.17;;
57457;SDS011;43304;52.332;6.110;2023-04-15T06:28:56;19.00;;;17.23;;
57457;SDS011;43304;52.332;6.110;2023-04-15T06:31:24;19.90;;;18.10;;
57457;SDS011;43304;52.332;6.110;2023-04-15T06:33:52;19.58;;;17.77;;
57457;SDS011;43304;52.332;6.110;2023-04-15T06:36:19;19.55;;;17.75;;
57457;SDS011;43304;52.332;6.110;2023-04-15T06:38:49;19.40;;;17.67;;
57457;SDS011;43304;52.332;6.110;2023-04-15T06:41:16;19.55;;;17.75;;
57457;SDS011;43304;52.332;6.110;2023-04-15T06:43:44;20.27;;;18.27;;
57457;SDS011;43304;52.332;6.110;2023-04-15T06:46:11;19.77;;;17.83;;
57457;SDS011;43304;52.332;6.110;2023-04-15T06:48:39;20.00;;;18.13;;
57457;SDS011;43304;52.332;6.110;2023-04-15T06:51:07;19.95;;;18.13;;
57457;SDS011;43304;52.332;6.110;2023-04-15T06:53:34;19.42;;;17.67;;
57457;SDS011;43304;52.332;6.110;2023-04-15T06:56:09;19.83;;;18.00;;
57457;SDS011;43304;52.332;6.110;2023-04-15T06:58:36;18.50;;;16.80;;
57457;SDS011;43304;52.332;6.110;2023-04-15T07:01:06;18.57;;;16.87;;
57457;SDS011;43304;52.332;6.110;2023-04-15T07:03:34;18.52;;;16.85;;
57457;SDS011;43304;52.332;6.110;2023-04-15T07:06:01;16.83;;;15.32;;
57457;SDS011;43304;52.332;6.110;2023-04-15T07:08:34;15.35;;;13.85;;
57457;SDS011;43304;52.332;6.110;2023-04-15T07:11:02;15.48;;;13.88;;
57457;SDS011;43304;52.332;6.110;2023-04-15T07:13:30;15.07;;;13.70;;
57457;SDS011;43304;52.332;6.110;2023-04-15T07:15:58;14.60;;;13.35;;
57457;SDS011;43304;52.332;6.110;2023-04-15T07:18:25;13.63;;;12.43;;
57457;SDS011;43304;52.332;6.110;2023-04-15T07:20:53;13.50;;;12.30;;
57457;SDS011;43304;52.332;6.110;2023-04-15T07:23:31;12.93;;;11.73;;
57457;SDS011;43304;52.332;6.110;2023-04-15T07:26:03;12.95;;;11.75;;
57457;SDS011;43304;52.332;6.110;2023-04-15T07:28:30;12.38;;;11.27;;
57457;SDS011;43304;52.332;6.110;2023-04-15T07:30:59;12.95;;;11.75;;
57457;SDS011;43304;52.332;6.110;2023-04-15T07:33:28;12.67;;;11.50;;
57457;SDS011;43304;52.332;6.110;2023-04-15T07:35:55;12.87;;;11.77;;
57457;SDS011;43304;52.332;6.110;2023-04-15T07:38:23;14.43;;;11.73;;
57457;SDS011;43304;52.332;6.110;2023-04-15T07:40:52;12.68;;;11.48;;
57457;SDS011;43304;52.332;6.110;2023-04-15T07:43:19;12.38;;;11.27;;
57457;SDS011;43304;52.332;6.110;2023-04-15T07:45:48;11.93;;;10.75;;
57457;SDS011;43304;52.332;6.110;2023-04-15T07:48:17;11.90;;;10.80;;
57457;SDS011;43304;52.332;6.110;2023-04-15T07:50:45;11.85;;;10.65;;
57457;SDS011;43304;52.332;6.110;2023-04-15T07:53:15;11.33;;;10.33;;
57457;SDS011;43304;52.332;6.110;2023-04-15T07:55:42;10.80;;;9.85;;
57457;SDS011;43304;52.332;6.110;2023-04-15T07:58:10;10.65;;;9.60;;
57457;SDS011;43304;52.332;6.110;2023-04-15T08:00:40;10.55;;;9.55;;
57457;SDS011;43304;52.332;6.110;2023-04-15T08:03:14;10.48;;;9.60;;
57457;SDS011;43304;52.332;6.110;2023-04-15T08:05:42;11.25;;;10.25;;
57457;SDS011;43304;52.332;6.110;2023-04-15T08:08:11;10.73;;;9.73;;
57457;SDS011;43304;52.332;6.110;2023-04-15T08:10:49;10.73;;;9.73;;
57457;SDS011;43304;52.332;6.110;2023-04-15T08:13:19;10.18;;;9.18;;
57457;SDS011;43304;52.332;6.110;2023-04-15T08:15:53;10.77;;;9.80;;
57457;SDS011;43304;52.332;6.110;2023-04-15T08:18:40;9.63;;;8.82;;
57457;SDS011;43304;52.332;6.110;2023-04-15T08:21:08;10.13;;;9.18;;
57457;SDS011;43304;52.332;6.110;2023-04-15T08:23:36;9.50;;;8.70;;
57457;SDS011;43304;52.332;6.110;2023-04-15T08:26:04;9.70;;;8.80;;
57457;SDS011;43304;52.332;6.110;2023-04-15T08:28:33;9.40;;;8.60;;
57457;SDS011;43304;52.332;6.110;2023-04-15T08:31:01;9.50;;;8.52;;
57457;SDS011;43304;52.332;6.110;2023-04-15T08:33:29;10.20;;;9.30;;
57457;SDS011;43304;52.332;6.110;2023-04-15T08:35:56;10.00;;;9.10;;
57457;SDS011;43304;52.332;6.110;2023-04-15T08:38:38;10.07;;;9.10;;
57457;SDS011;43304;52.332;6.110;2023-04-15T08:41:11;10.27;;;9.38;;
57457;SDS011;43304;52.332;6.110;2023-04-15T08:43:52;10.32;;;9.43;;
57457;SDS011;43304;52.332;6.110;2023-04-15T08:46:22;10.63;;;9.73;;
57457;SDS011;43304;52.332;6.110;2023-04-15T08:48:51;9.82;;;8.93;;
57457;SDS011;43304;52.332;6.110;2023-04-15T08:51:23;9.98;;;9.10;;
57457;SDS011;43304;52.332;6.110;2023-04-15T08:53:51;10.48;;;9.48;;
57457;SDS011;43304;52.332;6.110;2023-04-15T08:56:21;10.05;;;9.15;;
57457;SDS011;43304;52.332;6.110;2023-04-15T08:58:50;10.63;;;9.63;;
57457;SDS011;43304;52.332;6.110;2023-04-15T09:01:20;9.70;;;8.80;;
57457;SDS011;43304;52.332;6.110;2023-04-15T09:03:48;9.20;;;8.30;;
57457;SDS011;43304;52.332;6.110;2023-04-15T09:06:21;9.23;;;8.32;;
57457;SDS011;43304;52.332;6.110;2023-04-15T09:08:49;7.95;;;7.20;;
57457;SDS011;43304;52.332;6.110;2023-04-15T09:11:16;8.30;;;7.60;;
57457;SDS011;43304;52.332;6.110;2023-04-15T09:13:45;7.60;;;6.90;;
57457;SDS011;43304;52.332;6.110;2023-04-15T09:16:12;7.43;;;6.72;;
57457;SDS011;43304;52.332;6.110;2023-04-15T09:18:40;7.25;;;6.32;;
57457;SDS011;43304;52.332;6.110;2023-04-15T09:21:11;7.40;;;6.70;;
57457;SDS011;43304;52.332;6.110;2023-04-15T09:23:40;6.77;;;6.07;;
57457;SDS011;43304;52.332;6.110;2023-04-15T09:26:28;7.57;;;6.50;;
57457;SDS011;43304;52.332;6.110;2023-04-15T09:29:03;6.85;;;6.25;;
57457;SDS011;43304;52.332;6.110;2023-04-15T09:31:35;6.68;;;6.07;;
57457;SDS011;43304;52.332;6.110;2023-04-15T09:34:02;6.30;;;5.70;;
57457;SDS011;43304;52.332;6.110;2023-04-15T09:37:04;6.05;;;5.53;;
57457;SDS011;43304;52.332;6.110;2023-04-15T09:39:26;7.47;;;5.70;;
57457;SDS011;43304;52.332;6.110;2023-04-15T09:42:04;6.10;;;5.50;;
57457;SDS011;43304;52.332;6.110;2023-04-15T09:44:32;6.10;;;5.60;;
57457;SDS011;43304;52.332;6.110;2023-04-15T09:46:59;5.60;;;5.10;;
57457;SDS011;43304;52.332;6.110;2023-04-15T09:49:28;5.82;;;5.22;;
57457;SDS011;43304;52.332;6.110;2023-04-15T09:51:59;5.65;;;5.13;;
57457;SDS011;43304;52.332;6.110;2023-04-15T09:54:33;5.15;;;4.63;;
57457;SDS011;43304;52.332;6.110;2023-04-15T09:57:06;4.95;;;4.50;;
57457;SDS011;43304;52.332;6.110;2023-04-15T09:59:36;4.88;;;4.38;;
57457;SDS011;43304;52.332;6.110;2023-04-15T10:02:05;4.97;;;4.47;;
57457;SDS011;43304;52.332;6.110;2023-04-15T10:04:35;4.90;;;4.50;;
57457;SDS011;43304;52.332;6.110;2023-04-15T10:07:07;5.03;;;4.47;;
57457;SDS011;43304;52.332;6.110;2023-04-15T10:09:35;5.25;;;4.75;;
57457;SDS011;43304;52.332;6.110;2023-04-15T10:12:03;5.77;;;4.70;;
57457;SDS011;43304;52.332;6.110;2023-04-15T10:14:39;5.28;;;4.78;;
57457;SDS011;43304;52.332;6.110;2023-04-15T10:17:11;5.23;;;4.83;;
57457;SDS011;43304;52.332;6.110;2023-04-15T10:19:38;5.13;;;4.70;;
57457;SDS011;43304;52.332;6.110;2023-04-15T10:22:07;5.10;;;4.60;;
57457;SDS011;43304;52.332;6.110;2023-04-15T10:24:37;5.00;;;3.90;;
57457;SDS011;43304;52.332;6.110;2023-04-15T10:27:07;4.72;;;4.00;;
57457;SDS011;43304;52.332;6.110;2023-04-15T10:29:35;4.57;;;4.10;;
57457;SDS011;43304;52.332;6.110;2023-04-15T10:32:09;4.78;;;4.00;;
57457;SDS011;43304;52.332;6.110;2023-04-15T10:34:37;4.50;;;3.92;;
57457;SDS011;43304;52.332;6.110;2023-04-15T10:37:04;4.50;;;3.60;;
57457;SDS011;43304;52.332;6.110;2023-04-15T10:42:13;3.85;;;3.40;;
57457;SDS011;43304;52.332;6.110;2023-04-15T10:44:44;4.65;;;3.22;;
57457;SDS011;43304;52.332;6.110;2023-04-15T10:47:18;3.57;;;3.07;;
57457;SDS011;43304;52.332;6.110;2023-04-15T10:49:48;3.90;;;2.78;;
57457;SDS011;43304;52.332;6.110;2023-04-15T10:52:22;4.32;;;3.30;;
57457;SDS011;43304;52.332;6.110;2023-04-15T10:54:50;3.85;;;3.10;;
57457;SDS011;43304;52.332;6.110;2023-04-15T10:57:33;4.60;;;3.00;;
57457;SDS011;43304;52.332;6.110;2023-04-15T11:00:09;5.18;;;3.38;;
57457;SDS011;43304;52.332;6.110;2023-04-15T11:02:44;3.75;;;2.90;;
57457;SDS011;43304;52.332;6.110;2023-04-15T11:05:19;4.57;;;2.95;;
57457;SDS011;43304;52.332;6.110;2023-04-15T11:07:49;6.07;;;3.60;;
57457;SDS011;43304;52.332;6.110;2023-04-15T11:12:58;2.97;;;2.40;;
57457;SDS011;43304;52.332;6.110;2023-04-15T11:15:32;3.83;;;2.60;;
57457;SDS011;43304;52.332;6.110;2023-04-15T11:20:49;3.05;;;2.63;;
57457;SDS011;43304;52.332;6.110;2023-04-15T11:23:26;2.97;;;2.67;;
57457;SDS011;43304;52.332;6.110;2023-04-15T11:25:58;3.15;;;2.60;;
57457;SDS011;43304;52.332;6.110;2023-04-15T11:28:27;4.57;;;2.85;;
57457;SDS011;43304;52.332;6.110;2023-04-15T11:30:55;5.43;;;2.80;;
57457;SDS011;43304;52.332;6.110;2023-04-15T11:33:23;3.42;;;2.50;;
57457;SDS011;43304;52.332;6.110;2023-04-15T11:35:52;3.33;;;2.60;;
57457;SDS011;43304;52.332;6.110;2023-04-15T11:38:20;4.30;;;2.47;;
57457;SDS011;43304;52.332;6.110;2023-04-15T11:40:48;3.08;;;2.40;;
57457;SDS011;43304;52.332;6.110;2023-04-15T11:43:17;2.85;;;2.20;;
57457;SDS011;43304;52.332;6.110;2023-04-15T11:45:55;3.83;;;2.10;;
57457;SDS011;43304;52.332;6.110;2023-04-15T11:48:24;3.67;;;2.38;;
57457;SDS011;43304;52.332;6.110;2023-04-15T11:50:54;3.13;;;2.20;;
57457;SDS011;43304;52.332;6.110;2023-04-15T11:53:41;2.50;;;2.00;;
57457;SDS011;43304;52.332;6.110;2023-04-15T11:56:31;3.05;;;2.10;;
57457;SDS011;43304;52.332;6.110;2023-04-15T11:58:58;3.00;;;1.95;;
57457;SDS011;43304;52.332;6.110;2023-04-15T12:01:32;4.65;;;1.92;;
57457;SDS011;43304;52.332;6.110;2023-04-15T12:04:09;2.65;;;1.90;;
57457;SDS011;43304;52.332;6.110;2023-04-15T12:06:43;2.45;;;1.63;;
57457;SDS011;43304;52.332;6.110;2023-04-15T12:09:14;2.97;;;1.80;;
57457;SDS011;43304;52.332;6.110;2023-04-15T12:11:46;2.17;;;1.30;;
57457;SDS011;43304;52.332;6.110;2023-04-15T12:14:19;1.98;;;1.20;;
57457;SDS011;43304;52.332;6.110;2023-04-15T12:16:52;2.63;;;1.20;;
57457;SDS011;43304;52.332;6.110;2023-04-15T12:19:24;2.25;;;1.00;;
57457;SDS011;43304;52.332;6.110;2023-04-15T12:21:56;2.28;;;1.30;;
57457;SDS011;43304;52.332;6.110;2023-04-15T12:24:30;1.65;;;1.20;;
57457;SDS011;43304;52.332;6.110;2023-04-15T12:27:00;2.17;;;1.27;;
57457;SDS011;43304;52.332;6.110;2023-04-15T12:29:30;2.30;;;1.10;;
57457;SDS011;43304;52.332;6.110;2023-04-15T12:31:58;2.90;;;1.20;;
57457;SDS011;43304;52.332;6.110;2023-04-15T12:34:31;1.52;;;1.15;;
57457;SDS011;43304;52.332;6.110;2023-04-15T12:37:01;2.40;;;1.23;;
57457;SDS011;43304;52.332;6.110;2023-04-15T12:39:30;2.75;;;1.10;;
57457;SDS011;43304;52.332;6.110;2023-04-15T12:41:58;1.67;;;1.20;;
57457;SDS011;43304;52.332;6.110;2023-04-15T12:44:26;1.30;;;1.15;;
57457;SDS011;43304;52.332;6.110;2023-04-15T12:46:54;1.63;;;1.10;;
57457;SDS011;43304;52.332;6.110;2023-04-15T12:49:21;2.00;;;1.30;;
57457;SDS011;43304;52.332;6.110;2023-04-15T12:51:52;2.10;;;1.40;;
57457;SDS011;43304;52.332;6.110;2023-04-15T12:54:23;2.05;;;1.40;;
57457;SDS011;43304;52.332;6.110;2023-04-15T12:56:51;1.92;;;1.52;;
57457;SDS011;43304;52.332;6.110;2023-04-15T12:59:18;1.20;;;1.10;;
57457;SDS011;43304;52.332;6.110;2023-04-15T13:01:46;1.52;;;1.42;;
57457;SDS011;43304;52.332;6.110;2023-04-15T13:04:15;1.50;;;1.20;;
57457;SDS011;43304;52.332;6.110;2023-04-15T13:06:42;1.48;;;1.35;;
57457;SDS011;43304;52.332;6.110;2023-04-15T13:09:12;1.63;;;1.30;;
57457;SDS011;43304;52.332;6.110;2023-04-15T13:11:39;2.53;;;1.77;;
57457;SDS011;43304;52.332;6.110;2023-04-15T13:14:07;2.25;;;1.60;;
57457;SDS011;43304;52.332;6.110;2023-04-15T13:16:35;2.40;;;1.58;;
57457;SDS011;43304;52.332;6.110;2023-04-15T13:19:02;2.70;;;1.80;;
57457;SDS011;43304;52.332;6.110;2023-04-15T13:21:30;2.20;;;1.63;;
57457;SDS011;43304;52.332;6.110;2023-04-15T13:24:02;2.20;;;1.60;;
57457;SDS011;43304;52.332;6.110;2023-04-15T13:26:30;3.65;;;1.80;;
57457;SDS011;43304;52.332;6.110;2023-04-15T13:28:58;2.47;;;1.80;;
57457;SDS011;43304;52.332;6.110;2023-04-15T13:31:25;2.67;;;1.95;;
57457;SDS011;43304;52.332;6.110;2023-04-15T13:33:55;3.67;;;1.90;;
57457;SDS011;43304;52.332;6.110;2023-04-15T13:36:23;2.35;;;1.83;;
57457;SDS011;43304;52.332;6.110;2023-04-15T13:38:52;3.83;;;1.90;;
57457;SDS011;43304;52.332;6.110;2023-04-15T13:41:20;3.70;;;1.98;;
57457;SDS011;43304;52.332;6.110;2023-04-15T13:43:48;4.30;;;2.30;;
57457;SDS011;43304;52.332;6.110;2023-04-15T13:46:15;4.38;;;2.00;;
57457;SDS011;43304;52.332;6.110;2023-04-15T13:48:42;4.28;;;2.28;;
57457;SDS011;43304;52.332;6.110;2023-04-15T13:51:09;4.82;;;2.10;;
57457;SDS011;43304;52.332;6.110;2023-04-15T13:53:38;4.20;;;2.08;;
57457;SDS011;43304;52.332;6.110;2023-04-15T13:56:07;7.07;;;2.47;;
57457;SDS011;43304;52.332;6.110;2023-04-15T13:58:35;4.72;;;2.10;;
57457;SDS011;43304;52.332;6.110;2023-04-15T14:01:03;4.03;;;2.30;;
57457;SDS011;43304;52.332;6.110;2023-04-15T14:03:36;5.35;;;2.58;;
57457;SDS011;43304;52.332;6.110;2023-04-15T14:06:04;4.35;;;2.10;;
57457;SDS011;43304;52.332;6.110;2023-04-15T14:08:32;4.53;;;2.33;;
57457;SDS011;43304;52.332;6.110;2023-04-15T14:10:59;9.20;;;4.88;;
57457;SDS011;43304;52.332;6.110;2023-04-15T14:13:26;4.75;;;2.30;;
57457;SDS011;43304;52.332;6.110;2023-04-15T14:15:53;4.47;;;2.40;;
57457;SDS011;43304;52.332;6.110;2023-04-15T14:18:20;5.93;;;2.40;;
57457;SDS011;43304;52.332;6.110;2023-04-15T14:20:48;4.97;;;2.40;;
57457;SDS011;43304;52.332;6.110;2023-04-15T14:23:15;5.50;;;2.35;;
57457;SDS011;43304;52.332;6.110;2023-04-15T14:25:42;4.28;;;2.28;;
57457;SDS011;43304;52.332;6.110;2023-04-15T14:28:13;3.70;;;2.13;;
57457;SDS011;43304;52.332;6.110;2023-04-15T14:30:40;4.93;;;2.22;;
57457;SDS011;43304;52.332;6.110;2023-04-15T14:33:07;4.85;;;2.10;;
57457;SDS011;43304;52.332;6.110;2023-04-15T14:35:35;5.93;;;2.33;;
57457;SDS011;43304;52.332;6.110;2023-04-15T14:38:02;5.47;;;2.50;;
57457;SDS011;43304;52.332;6.110;2023-04-15T14:40:32;6.57;;;2.67;;
57457;SDS011;43304;52.332;6.110;2023-04-15T14:42:59;7.23;;;2.30;;
57457;SDS011;43304;52.332;6.110;2023-04-15T14:45:26;7.53;;;2.87;;
57457;SDS011;43304;52.332;6.110;2023-04-15T14:47:53;6.18;;;2.50;;
57457;SDS011;43304;52.332;6.110;2023-04-15T14:50:21;8.52;;;2.53;;
57457;SDS011;43304;52.332;6.110;2023-04-15T14:52:48;7.72;;;3.70;;
57457;SDS011;43304;52.332;6.110;2023-04-15T14:55:15;6.50;;;2.67;;
57457;SDS011;43304;52.332;6.110;2023-04-15T14:57:43;5.97;;;2.28;;